createdAt,value
2022-09-17T03:02:35.800Z,70.17
2022-09-17T03:05:04.225Z,70.03
2022-09-17T03:07:32.725Z,70.22
2022-09-17T03:09:59.678Z,70.68
2022-09-17T03:12:26.827Z,70.45
2022-09-17T03:14:53.268Z,70.83
2022-09-17T03:17:19.784Z,70.33
2022-09-17T03:19:46.181Z,71.02
2022-09-17T03:22:12.655Z,70.78
2022-09-17T03:24:39.111Z,70.81
2022-09-17T03:27:05.707Z,71.07
2022-09-17T03:29:32.097Z,70.42
2022-09-17T03:31:59.293Z,70.26
2022-09-17T03:34:25.725Z,70.54
2022-09-17T03:36:52.382Z,69.95
2022-09-17T03:39:18.832Z,70.21
2022-09-17T03:41:45.342Z,70.06
2022-09-17T03:44:11.771Z,70.54
2022-09-17T03:46:38.372Z,70.50
2022-09-17T03:49:04.920Z,70.11
2022-09-17T03:51:31.366Z,70.22
2022-09-17T03:53:57.787Z,70.29
2022-09-17T03:56:24.234Z,69.84
2022-09-17T03:58:50.700Z,69.70
2022-09-17T04:01:17.308Z,70.27
2022-09-17T04:03:45.278Z,70.13
2022-09-17T04:06:11.870Z,69.97
2022-09-17T04:08:38.353Z,69.62
2022-09-17T04:11:05.025Z,70.13
2022-09-17T04:13:31.503Z,69.76
2022-09-17T04:15:58.119Z,69.45
2022-09-17T04:18:24.617Z,69.40
2022-09-17T04:20:51.137Z,69.33
2022-09-17T04:23:17.590Z,69.14
2022-09-17T04:25:44.223Z,68.88
2022-09-17T04:28:11.418Z,69.52
2022-09-17T04:30:38.444Z,69.27
2022-09-17T04:33:05.311Z,69.11
2022-09-17T04:35:31.823Z,68.66
2022-09-17T04:37:58.318Z,68.76
2022-09-17T04:40:26.095Z,69.23
2022-09-17T04:42:56.869Z,69.42
2022-09-17T04:45:23.665Z,69.24
2022-09-17T04:47:52.968Z,69.10
2022-09-17T04:50:19.495Z,69.27
2022-09-17T04:52:46.483Z,69.01
2022-09-17T04:55:13.877Z,68.87
2022-09-17T04:57:46.242Z,68.90
2022-09-17T05:00:13.557Z,68.97
2022-09-17T05:02:40.068Z,68.93
2022-09-17T05:05:06.681Z,69.09
2022-09-17T05:07:33.151Z,68.81
2022-09-17T05:09:59.569Z,69.07
2022-09-17T05:12:25.975Z,69.37
2022-09-17T05:14:52.441Z,69.33
2022-09-17T05:17:18.878Z,69.16
2022-09-17T05:19:45.274Z,70.18
2022-09-17T05:22:11.743Z,69.50
2022-09-17T05:24:39.707Z,68.70
2022-09-17T05:27:07.120Z,69.22
2022-09-17T05:29:33.510Z,69.52
2022-09-17T05:32:00.008Z,69.12
2022-09-17T05:34:26.452Z,68.96
2022-09-17T05:36:52.981Z,69.01
2022-09-17T05:39:21.331Z,69.26
2022-09-17T05:41:47.705Z,68.54
2022-09-17T05:44:17.961Z,69.13
2022-09-17T05:46:45.541Z,69.46
2022-09-17T05:49:12.954Z,69.57
2022-09-17T05:51:39.558Z,68.79
2022-09-17T05:54:06.264Z,69.15
2022-09-17T05:56:32.831Z,68.94
2022-09-17T05:58:59.407Z,69.48
2022-09-17T06:01:26.295Z,70.34
2022-09-17T06:03:53.761Z,69.61
2022-09-17T06:06:20.308Z,69.71
2022-09-17T06:08:46.835Z,69.98
2022-09-17T06:11:13.526Z,68.83
2022-09-17T06:13:40.027Z,68.06
2022-09-17T06:16:06.574Z,67.84
2022-09-17T06:18:33.046Z,67.93
2022-09-17T06:21:03.984Z,67.81
2022-09-17T06:23:37.242Z,68.43
2022-09-17T06:26:05.652Z,67.63
2022-09-17T06:28:32.556Z,68.35
2022-09-17T06:31:04.088Z,69.84
2022-09-17T06:33:31.863Z,68.52
2022-09-17T06:36:04.162Z,68.10
2022-09-17T06:38:33.174Z,67.63
2022-09-17T06:40:59.693Z,67.67
2022-09-17T06:43:26.675Z,67.96
2022-09-17T06:46:00.794Z,67.59
2022-09-17T06:48:28.319Z,67.28
2022-09-17T06:50:55.962Z,67.45
2022-09-17T06:53:23.715Z,67.43
2022-09-17T06:55:51.007Z,66.99
2022-09-17T06:58:17.667Z,66.63
2022-09-17T07:00:44.243Z,66.64
2022-09-17T07:03:10.805Z,66.76
2022-09-17T07:05:37.202Z,66.49
2022-09-17T07:08:04.640Z,66.08
2022-09-17T07:10:31.830Z,65.73
2022-09-17T07:12:59.348Z,65.06
2022-09-17T07:15:25.984Z,64.45
2022-09-17T07:17:52.483Z,63.73
2022-09-17T07:20:19.261Z,63.91
2022-09-17T07:22:45.732Z,63.93
2022-09-17T07:25:13.444Z,63.86
2022-09-17T07:27:39.910Z,63.81
2022-09-17T07:30:07.057Z,63.26
2022-09-17T07:32:33.645Z,63.06
2022-09-17T07:35:00.046Z,63.22
2022-09-17T07:37:26.650Z,62.27
2022-09-17T07:39:53.075Z,63.27
2022-09-17T07:42:19.495Z,62.48
2022-09-17T07:44:46.863Z,61.60
2022-09-17T07:47:13.335Z,61.85
2022-09-17T07:49:39.750Z,61.95
2022-09-17T07:52:06.577Z,61.38
2022-09-17T07:54:38.997Z,60.55
2022-09-17T07:57:05.828Z,60.51
2022-09-17T07:59:32.360Z,61.17
2022-09-17T08:01:59.148Z,60.94
2022-09-17T08:04:26.005Z,60.42
2022-09-17T08:06:52.441Z,59.74
2022-09-17T08:09:18.912Z,59.35
2022-09-17T08:11:55.650Z,58.91
2022-09-17T08:14:26.961Z,59.49
2022-09-17T08:16:55.758Z,59.16
2022-09-17T08:19:22.257Z,59.46
2022-09-17T08:21:48.745Z,58.64
2022-09-17T08:24:15.305Z,56.46
2022-09-17T08:26:41.939Z,56.09
2022-09-17T08:29:08.554Z,56.50
2022-09-17T08:31:35.074Z,55.33
2022-09-17T08:34:01.716Z,54.05
2022-09-17T08:36:28.618Z,53.17
2022-09-17T08:38:55.910Z,54.23
2022-09-17T08:41:44.102Z,53.88
2022-09-17T08:44:22.390Z,53.41
2022-09-17T08:46:57.957Z,49.03
2022-09-17T08:49:36.692Z,46.02
2022-09-17T08:52:10.124Z,47.14
2022-09-17T08:54:55.568Z,47.83
2022-09-17T08:57:36.306Z,49.63
2022-09-17T09:00:18.659Z,51.40
2022-09-17T09:03:00.365Z,49.34
2022-09-17T09:05:30.251Z,48.71
2022-09-17T09:08:04.540Z,49.69
2022-09-17T09:10:46.543Z,51.17
2022-09-17T09:13:17.141Z,48.26
2022-09-17T09:15:53.513Z,45.47
2022-09-17T09:18:22.898Z,44.06
2022-09-17T09:21:25.566Z,41.77
2022-09-17T09:24:07.758Z,41.79
2022-09-17T09:26:40.061Z,42.04
2022-09-17T09:29:21.173Z,42.89
2022-09-17T09:31:55.900Z,43.54
2022-09-17T09:34:23.836Z,46.07
2022-09-17T09:36:51.764Z,45.76
2022-09-17T09:39:25.402Z,46.48
2022-09-17T09:42:27.146Z,47.73
2022-09-17T09:44:53.696Z,48.18
2022-09-17T09:47:26.348Z,48.63
2022-09-17T09:50:05.564Z,49.10
2022-09-17T09:52:59.576Z,49.89
2022-09-17T09:56:04.227Z,51.91
2022-09-17T09:58:39.259Z,52.57
2022-09-17T10:01:14.164Z,51.66
2022-09-17T10:03:42.258Z,48.75
2022-09-17T10:06:10.601Z,44.67
2022-09-17T10:08:40.124Z,43.60
2022-09-17T10:11:12.100Z,44.59
2022-09-17T10:13:40.762Z,42.40
2022-09-17T10:16:42.450Z,39.90
2022-09-17T10:19:08.794Z,38.49
2022-09-17T10:21:37.912Z,38.57
2022-09-17T10:24:14.340Z,39.17
2022-09-17T10:26:40.822Z,36.82
2022-09-17T10:29:14.637Z,37.68
2022-09-17T10:31:56.096Z,38.13
2022-09-17T10:34:28.842Z,40.62
2022-09-17T10:36:56.688Z,42.20
2022-09-17T10:39:32.609Z,43.14
2022-09-17T10:42:15.663Z,44.05
2022-09-17T10:45:02.333Z,43.69
2022-09-17T10:47:37.342Z,44.72
2022-09-17T10:50:22.046Z,44.63
2022-09-17T10:52:51.833Z,45.00
2022-09-17T10:55:39.359Z,45.70
2022-09-17T10:58:08.667Z,47.88
2022-09-17T11:00:59.305Z,47.36
2022-09-17T11:03:53.562Z,46.85
2022-09-17T11:07:05.801Z,47.36
2022-09-17T11:09:52.689Z,47.12
2022-09-17T11:12:34.360Z,48.36
2022-09-17T11:15:13.747Z,48.25
2022-09-17T11:18:07.538Z,47.79
2022-09-17T11:20:56.788Z,45.00
2022-09-17T11:23:38.275Z,41.75
2022-09-17T11:26:11.668Z,40.30
2022-09-17T11:29:29.081Z,40.71
2022-09-17T11:32:13.606Z,42.92
2022-09-17T11:34:51.293Z,45.39
2022-09-17T11:37:27.015Z,45.91
2022-09-17T11:40:15.216Z,46.66
2022-09-17T11:42:48.400Z,42.81
2022-09-17T11:45:20.303Z,41.25
2022-09-17T11:47:56.282Z,37.42
2022-09-17T11:50:29.657Z,36.60
2022-09-17T11:53:14.977Z,34.85
2022-09-17T11:55:55.658Z,36.25
2022-09-17T11:58:47.909Z,36.75
2022-09-17T12:01:26.047Z,36.98
2022-09-17T12:04:01.728Z,39.42
2022-09-17T12:06:40.304Z,39.67
2022-09-17T12:09:17.079Z,40.36
2022-09-17T12:11:59.277Z,40.84
2022-09-17T12:14:51.981Z,40.50
2022-09-17T12:17:39.939Z,41.00
2022-09-17T12:20:15.262Z,43.63
2022-09-17T12:22:46.017Z,46.05
2022-09-17T12:25:13.261Z,47.65
2022-09-17T12:28:01.480Z,46.63
2022-09-17T12:30:40.771Z,44.73
2022-09-17T12:33:28.957Z,41.55
2022-09-17T12:36:22.261Z,36.57
2022-09-17T12:38:51.591Z,33.78
2022-09-17T12:41:36.103Z,33.25
2022-09-17T12:44:30.283Z,31.65
2022-09-17T12:47:13.275Z,30.84
2022-09-17T12:49:50.252Z,31.68
2022-09-17T12:52:26.151Z,34.38
2022-09-17T12:55:14.765Z,37.17
2022-09-17T12:58:01.702Z,37.84
2022-09-17T13:00:41.405Z,40.50
2022-09-17T13:03:14.933Z,40.60
2022-09-17T13:06:03.650Z,39.83
2022-09-17T13:09:09.201Z,38.81
2022-09-17T13:12:00.802Z,38.50
2022-09-17T13:15:07.437Z,38.21
2022-09-17T13:17:46.692Z,37.60
2022-09-17T13:20:15.830Z,37.69
2022-09-17T13:22:54.334Z,38.86
2022-09-17T13:25:22.260Z,37.93
2022-09-17T13:27:50.518Z,38.59
2022-09-17T13:30:18.827Z,38.31
2022-09-17T13:32:47.697Z,38.21
2022-09-17T13:35:16.911Z,38.50
2022-09-17T13:37:45.699Z,38.47
2022-09-17T13:40:34.966Z,38.61
2022-09-17T13:43:04.572Z,38.32
2022-09-17T13:45:33.775Z,38.09
2022-09-17T13:48:08.011Z,38.03
2022-09-17T13:50:43.252Z,38.33
2022-09-17T13:53:12.458Z,38.43
2022-09-17T13:55:42.958Z,38.52
2022-09-17T13:58:28.031Z,38.46
2022-09-17T14:01:00.146Z,39.51
2022-09-17T14:03:44.331Z,39.22
2022-09-17T14:06:14.848Z,38.86
2022-09-17T14:08:44.156Z,39.29
2022-09-17T14:11:22.518Z,39.46
2022-09-17T14:13:49.927Z,38.19
2022-09-17T14:16:40.654Z,37.11
2022-09-17T14:19:16.483Z,36.71
2022-09-17T14:21:46.360Z,37.12
2022-09-17T14:24:33.991Z,37.05
2022-09-17T14:27:22.119Z,37.59
2022-09-17T14:30:06.952Z,39.19
2022-09-17T14:32:51.686Z,40.94
2022-09-17T14:35:29.217Z,45.39
2022-09-17T14:38:00.280Z,46.56
2022-09-17T14:40:28.292Z,47.61
2022-09-17T14:42:57.732Z,47.01
2022-09-17T14:45:31.732Z,47.88
2022-09-17T14:48:30.683Z,49.13
2022-09-17T14:51:18.827Z,47.29
2022-09-17T14:53:49.568Z,47.21
2022-09-17T14:56:22.963Z,44.67
2022-09-17T14:58:54.166Z,43.46
2022-09-17T15:01:24.772Z,42.84
2022-09-17T15:04:20.186Z,42.76
2022-09-17T15:06:46.807Z,43.49
2022-09-17T15:09:25.451Z,44.11
2022-09-17T15:11:58.242Z,43.60
2022-09-17T15:14:33.599Z,43.33
2022-09-17T15:17:03.222Z,43.13
2022-09-17T15:19:42.763Z,43.42
2022-09-17T15:22:30.538Z,44.41
2022-09-17T15:25:02.568Z,43.11
2022-09-17T15:27:34.075Z,42.88
2022-09-17T15:30:06.001Z,43.11
2022-09-17T15:32:33.626Z,42.79
2022-09-17T15:35:15.457Z,43.13
2022-09-17T15:37:55.893Z,43.05
2022-09-17T15:40:34.670Z,43.14
2022-09-17T15:43:26.922Z,42.73
2022-09-17T15:45:54.299Z,43.24
2022-09-17T15:48:35.646Z,43.64
2022-09-17T15:51:04.486Z,43.19
2022-09-17T15:53:32.773Z,43.22
2022-09-17T15:56:07.653Z,42.85
2022-09-17T15:58:51.117Z,43.28
2022-09-17T16:01:17.618Z,43.85
2022-09-17T16:03:44.499Z,43.49
2022-09-17T16:06:32.818Z,44.11
2022-09-17T16:09:00.917Z,44.02
2022-09-17T16:11:30.411Z,44.11
2022-09-17T16:13:58.521Z,44.33
2022-09-17T16:16:34.003Z,44.51
2022-09-17T16:19:00.670Z,44.88
2022-09-17T16:21:27.545Z,44.22
2022-09-17T16:23:55.154Z,44.58
2022-09-17T16:26:24.979Z,44.36
2022-09-17T16:28:54.714Z,44.66
2022-09-17T16:31:21.304Z,44.47
2022-09-17T16:33:47.900Z,44.31
2022-09-17T16:36:16.895Z,45.63
2022-09-17T16:38:43.354Z,45.95
2022-09-17T16:41:09.989Z,46.23
2022-09-17T16:43:38.327Z,45.59
2022-09-17T16:46:10.536Z,45.69
2022-09-17T16:48:37.674Z,45.72
2022-09-17T16:51:08.638Z,46.00
2022-09-17T16:53:35.116Z,46.14
2022-09-17T16:56:01.831Z,45.98
2022-09-17T16:58:28.317Z,46.12
2022-09-17T17:00:54.938Z,45.63
2022-09-17T17:03:21.588Z,46.37
2022-09-17T17:05:48.125Z,45.96
2022-09-17T17:08:14.703Z,46.16
2022-09-17T17:10:41.486Z,46.11
2022-09-17T17:13:07.896Z,46.70
2022-09-17T17:15:34.542Z,47.15
2022-09-17T17:18:01.116Z,46.81
2022-09-17T17:20:27.665Z,46.88
2022-09-17T17:22:55.315Z,47.14
2022-09-17T17:25:23.602Z,46.96
2022-09-17T17:27:50.314Z,47.61
2022-09-17T17:30:17.514Z,47.59
2022-09-17T17:32:49.177Z,47.44
2022-09-17T17:35:15.962Z,48.18
2022-09-17T17:37:42.664Z,47.99
2022-09-17T17:40:10.354Z,48.01
2022-09-17T17:42:39.339Z,48.45
2022-09-17T17:45:07.611Z,48.83
2022-09-17T17:47:34.390Z,49.45
2022-09-17T17:50:00.934Z,50.52
2022-09-17T17:52:27.991Z,51.73
2022-09-17T17:54:54.423Z,52.68
2022-09-17T17:57:21.067Z,52.15
2022-09-17T17:59:47.738Z,53.02
2022-09-17T18:02:14.387Z,52.71
2022-09-17T18:04:41.051Z,52.46
2022-09-17T18:07:07.742Z,52.34
2022-09-17T18:09:34.313Z,52.57
2022-09-17T18:12:00.793Z,53.22
2022-09-17T18:14:27.497Z,54.02
2022-09-17T18:16:54.341Z,54.25
2022-09-17T18:19:20.929Z,53.79
2022-09-17T18:21:47.455Z,54.34
2022-09-17T18:24:13.981Z,54.03
2022-09-17T18:26:40.450Z,54.27
2022-09-17T18:29:08.161Z,54.30
2022-09-17T18:31:35.344Z,54.29
2022-09-17T18:34:04.931Z,54.37
2022-09-17T18:36:34.063Z,54.50
2022-09-17T18:39:56.927Z,55.22
2022-09-17T18:41:49.025Z,55.82
2022-09-17T18:44:15.862Z,56.67
2022-09-17T18:46:42.714Z,57.15
2022-09-17T18:49:09.315Z,57.52
2022-09-17T18:51:35.781Z,57.50
2022-09-17T18:54:03.938Z,57.83
2022-09-17T18:56:35.068Z,58.79
2022-09-17T18:59:07.144Z,59.07
2022-09-17T19:01:34.558Z,59.32
2022-09-17T19:04:01.189Z,60.41
2022-09-17T19:06:28.147Z,59.95
2022-09-17T19:08:58.893Z,60.32
2022-09-17T19:11:25.491Z,60.84
2022-09-17T19:13:52.121Z,60.40
2022-09-17T19:16:18.572Z,60.43
2022-09-17T19:18:45.155Z,60.04
2022-09-17T19:21:14.447Z,59.93
2022-09-17T19:23:42.855Z,60.53
2022-09-17T19:26:12.772Z,60.82
2022-09-17T19:28:39.545Z,61.20
2022-09-17T19:31:08.411Z,60.77
2022-09-17T19:33:35.235Z,60.98
2022-09-17T19:36:04.135Z,60.88
2022-09-17T19:38:30.622Z,61.31
2022-09-17T19:41:02.964Z,61.44
2022-09-17T19:43:30.048Z,61.01
2022-09-17T19:46:05.970Z,61.47
2022-09-17T19:48:35.721Z,62.02
2022-09-17T19:51:03.059Z,61.77
2022-09-17T19:53:29.533Z,61.15
2022-09-17T19:55:55.946Z,61.03
2022-09-17T19:58:22.390Z,61.35
2022-09-17T20:00:54.878Z,61.24
2022-09-17T20:03:21.461Z,61.39
2022-09-17T20:05:47.954Z,61.17
2022-09-17T20:08:14.468Z,61.27
2022-09-17T20:10:40.919Z,61.19
2022-09-17T20:13:07.370Z,61.73
2022-09-17T20:15:35.691Z,61.84
2022-09-17T20:18:02.950Z,61.75
2022-09-17T20:20:29.439Z,61.64
2022-09-17T20:22:56.166Z,61.88
2022-09-17T20:25:25.454Z,61.94
2022-09-17T20:27:53.238Z,61.74
2022-09-17T20:30:19.666Z,61.80
2022-09-17T20:32:46.221Z,61.59
2022-09-17T20:35:12.670Z,61.75
2022-09-17T20:40:25.704Z,61.80
2022-09-17T20:42:52.212Z,61.85
2022-09-17T20:45:18.638Z,62.10
2022-09-17T20:47:45.134Z,62.20
2022-09-17T20:50:11.575Z,61.86
2022-09-17T20:52:38.010Z,62.13
2022-09-17T20:55:04.873Z,62.37
2022-09-17T20:57:31.536Z,62.15
2022-09-17T21:00:00.757Z,62.32
2022-09-17T21:02:27.593Z,62.18
2022-09-17T21:04:54.138Z,62.55
2022-09-17T21:07:20.713Z,62.48
2022-09-17T21:09:47.295Z,62.44
2022-09-17T21:12:13.818Z,63.40
2022-09-17T21:14:40.229Z,63.08
2022-09-17T21:17:06.669Z,63.12
2022-09-17T21:19:33.174Z,63.00
2022-09-17T21:21:59.662Z,63.01
2022-09-17T21:24:26.142Z,63.16
2022-09-17T21:26:54.046Z,63.89
2022-09-17T21:29:20.745Z,64.33
2022-09-17T21:31:47.409Z,63.96
2022-09-17T21:34:14.722Z,64.30
2022-09-17T21:36:44.281Z,63.81
2022-09-17T21:39:16.277Z,63.97
2022-09-17T21:41:44.024Z,64.14
2022-09-17T21:44:12.032Z,64.01
2022-09-17T21:46:38.715Z,63.77
2022-09-17T21:49:05.821Z,63.73
2022-09-17T21:51:33.987Z,64.21
2022-09-17T21:54:06.877Z,64.18
2022-09-17T21:56:33.879Z,64.53
2022-09-17T21:59:02.987Z,64.07
